Excellence — KTDP — position and weather

sailwx.info

Track history (hours):
 
Tides and Currents Weather Stations Pressure Air Temp Water Temp Dewpoint Dewpoint Depression Visibility Wind Speed Wind Dir Waves Ship Positions

Excellence

Owner: ALASKA JOINT VENTURE SEAFOODS INC, SEATTLE, WA. More information available from US FCC via Universal Licensing System and Coast Guard Vessel Documentation Center.

Last reported at 2015-Feb-15 19:32 UTC. Time now 2015-Mar-31 08:27 UTC.
Position N 49°20' W 127°34'.
Warning: this ship's position is 43 days out of date.

Length 112 m; draft 7 m.

Type: Fishing. MMSI: 338162000.

Date/timePositionNaut miles runAvg speedWind from/ knotsBaromVisibWave heightAir tempDewpointWater temp
2015-Feb-15 19:32N 49°20' W 127°34'1713.5
2015-Feb-15 18:17N 49°12' W 127°11'1013.3
2015-Feb-15 17:34N 49°08' W 126°58'1413.5
2015-Feb-15 16:32N 49°02' W 126°39'1313.5
2015-Feb-15 15:33N 48°56' W 126°21'1313.4
2015-Feb-15 14:33N 48°50' W 126°02'1413.6
2015-Feb-15 13:33N 48°44' W 125°44'1414.0
2015-Feb-15 12:33N 48°37' W 125°25'1414.2
2015-Feb-15 11:33N 48°31' W 125°06'1413.9
2015-Feb-15 10:33N 48°30' W 124°45'1313.5
2015-Feb-15 09:33N 48°25' W 124°26'1313.0
2015-Feb-15 08:33N 48°21' W 124°08'1312.8
2015-Feb-15 07:33N 48°17' W 123°49'1312.6
2015-Feb-15 06:33N 48°15' W 123°30'1313.1
2015-Feb-15 05:33N 48°13' W 123°11'1313.5
2015-Feb-15 04:33N 48°12' W 122°51'1313.1
2015-Feb-15 03:33N 48°02' W 122°38'1413.6
2015-Feb-15 02:33N 47°50' W 122°27'1312.9
2015-Feb-15 01:33N 47°37' W 122°26'2 2.2
2015-Feb-15 00:33N 47°38' W 122°23'0 0.0
2015-Feb-14 23:33N 47°38' W 122°23'  
Track history (hours):
 
Tides and Currents Weather Stations Pressure Air Temp Water Temp Dewpoint Dewpoint Depression Visibility Wind Speed Wind Dir Waves Ship Positions

Excellence

Owner: ALASKA JOINT VENTURE SEAFOODS INC, SEATTLE, WA. More information available from US FCC via Universal Licensing System and Coast Guard Vessel Documentation Center.

Last reported at 2015-Feb-15 19:32 UTC. Time now 2015-Mar-31 08:27 UTC.
Position N 49°20' W 127°34'.
Warning: this ship's position is 43 days out of date.

Length 112 m; draft 7 m.

Type: Fishing. MMSI: 338162000.

Date/timePositionNaut miles runAvg speedWind from/ knotsBaromVisibWave heightAir tempDewpointWater temp
2015-Feb-15 19:32N 49°20' W 127°34'1713.5
2015-Feb-15 18:17N 49°12' W 127°11'1013.3
2015-Feb-15 17:34N 49°08' W 126°58'1413.5
2015-Feb-15 16:32N 49°02' W 126°39'1313.5
2015-Feb-15 15:33N 48°56' W 126°21'1313.4
2015-Feb-15 14:33N 48°50' W 126°02'1413.6
2015-Feb-15 13:33N 48°44' W 125°44'1414.0
2015-Feb-15 12:33N 48°37' W 125°25'1414.2
2015-Feb-15 11:33N 48°31' W 125°06'1413.9
2015-Feb-15 10:33N 48°30' W 124°45'1313.5
2015-Feb-15 09:33N 48°25' W 124°26'1313.0
2015-Feb-15 08:33N 48°21' W 124°08'1312.8
2015-Feb-15 07:33N 48°17' W 123°49'1312.6
2015-Feb-15 06:33N 48°15' W 123°30'1313.1
2015-Feb-15 05:33N 48°13' W 123°11'1313.5
2015-Feb-15 04:33N 48°12' W 122°51'1313.1
2015-Feb-15 03:33N 48°02' W 122°38'1413.6
2015-Feb-15 02:33N 47°50' W 122°27'1312.9
2015-Feb-15 01:33N 47°37' W 122°26'2 2.2
2015-Feb-15 00:33N 47°38' W 122°23'0 0.0
2015-Feb-14 23:33N 47°38' W 122°23'  

Dump ship's entire track history